Terminal Aerodrome Forecast
Issued by NWS

Current Version | Previous Version | Text Only | Print | Product List | Glossary On
Versions: 1 2 3 4 5 6 7 8 9 10 11 12 13 14 15 16
000
FTUS43 KGRR 291700
TAFMKG
TAF
KMKG 291740Z 2918/3018 32012KT 2SM -SHSN SCT007 OVC012
     FM291900 34012G21KT 3SM -SHSN OVC020
     FM300100 33014G23KT P6SM OVC025=

USA.gov is the U.S. government's official web portal to all federal, state and local government web resources and services.